createdAt,value
2019-01-11T00:01:52.301Z,94.10
2019-01-11T00:04:20.783Z,94.00
2019-01-11T00:06:49.216Z,94.00
2019-01-11T00:09:18.900Z,94.20
2019-01-11T00:11:47.414Z,94.40
2019-01-11T00:14:15.851Z,94.30
2019-01-11T00:16:44.272Z,94.30
2019-01-11T00:19:12.708Z,94.20
2019-01-11T00:21:41.122Z,94.50
2019-01-11T00:24:09.571Z,94.50
2019-01-11T00:26:38.190Z,94.50
2019-01-11T00:29:06.795Z,94.80
2019-01-11T00:31:35.299Z,94.80
2019-01-11T00:34:06.359Z,94.90
2019-01-11T00:36:34.859Z,95.10
2019-01-11T00:39:04.186Z,95.10
2019-01-11T00:41:32.645Z,94.70
2019-01-11T00:44:01.060Z,94.70
2019-01-11T00:46:29.475Z,94.50
2019-01-11T00:48:57.983Z,94.80
2019-01-11T00:51:26.402Z,95.40
2019-01-11T00:53:54.836Z,95.10
2019-01-11T00:56:23.261Z,94.60
2019-01-11T00:58:51.692Z,94.80
2019-01-11T01:01:20.126Z,95.10
2019-01-11T01:03:48.563Z,95.30
2019-01-11T01:06:17.060Z,95.30
2019-01-11T01:08:45.558Z,95.30
2019-01-11T01:11:14.062Z,95.40
2019-01-11T01:13:42.476Z,94.80
2019-01-11T01:16:11.047Z,94.90
2019-01-11T01:18:39.463Z,94.70
2019-01-11T01:21:08.168Z,94.20
2019-01-11T01:23:36.586Z,93.90
2019-01-11T01:26:05.553Z,94.00
2019-01-11T01:28:34.811Z,94.00
2019-01-11T01:31:03.247Z,94.40
2019-01-11T01:33:31.679Z,94.70
2019-01-11T01:36:00.097Z,94.60
2019-01-11T01:38:28.743Z,94.60
2019-01-11T01:40:58.036Z,94.30
2019-01-11T01:43:26.503Z,94.10
2019-01-11T01:45:54.919Z,93.70
2019-01-11T01:48:23.404Z,93.00
2019-01-11T01:50:51.839Z,92.50
2019-01-11T01:53:20.459Z,92.50
2019-01-11T01:55:48.932Z,92.60
2019-01-11T01:58:17.376Z,92.40
2019-01-11T02:00:45.815Z,92.20
2019-01-11T02:03:14.230Z,92.10
2019-01-11T02:05:42.647Z,91.90
2019-01-11T02:08:12.623Z,91.80
2019-01-11T02:10:41.040Z,91.60
2019-01-11T02:13:09.479Z,91.00
2019-01-11T02:15:38.178Z,90.30
2019-01-11T02:18:06.663Z,89.90
2019-01-11T02:20:35.096Z,90.10
2019-01-11T02:23:03.506Z,90.20
2019-01-11T02:25:31.938Z,89.00
2019-01-11T02:28:00.363Z,89.30
2019-01-11T02:30:28.788Z,90.20
2019-01-11T02:32:57.203Z,88.90
2019-01-11T02:35:25.647Z,90.00
2019-01-11T02:37:54.127Z,90.10
2019-01-11T02:40:22.615Z,90.10
2019-01-11T02:42:51.047Z,90.20
2019-01-11T02:45:20.099Z,89.30
2019-01-11T02:47:48.560Z,89.40
2019-01-11T02:50:17.046Z,89.00
2019-01-11T02:52:45.457Z,89.20
2019-01-11T02:55:14.028Z,89.10
2019-01-11T02:57:42.506Z,87.70
2019-01-11T03:00:14.074Z,88.00
2019-01-11T03:02:42.488Z,87.10
2019-01-11T03:05:11.157Z,86.60
2019-01-11T03:07:39.638Z,86.20
2019-01-11T03:10:16.062Z,85.60
2019-01-11T03:12:44.555Z,86.20
2019-01-11T03:15:14.174Z,87.10
2019-01-11T03:17:43.219Z,86.80
2019-01-11T03:20:13.874Z,87.00
2019-01-11T03:22:42.478Z,87.00
2019-01-11T03:25:13.133Z,88.00
2019-01-11T03:27:41.936Z,88.00
2019-01-11T03:30:18.454Z,88.70
2019-01-11T03:32:46.949Z,89.40
2019-01-11T03:35:16.293Z,90.20
2019-01-11T03:37:45.952Z,90.70
2019-01-11T03:40:16.822Z,91.00
2019-01-11T03:42:45.231Z,91.00
2019-01-11T03:45:16.499Z,91.40
2019-01-11T03:47:44.923Z,91.30
2019-01-11T03:50:15.867Z,91.50
2019-01-11T03:52:44.428Z,91.40
2019-01-11T03:55:14.294Z,91.50
2019-01-11T03:57:42.711Z,91.40
2019-01-11T04:00:17.211Z,90.80
2019-01-11T04:02:45.690Z,89.80
2019-01-11T04:05:14.257Z,88.80
2019-01-11T04:07:42.747Z,90.00
2019-01-11T04:10:14.370Z,90.00
2019-01-11T04:12:42.797Z,88.20
2019-01-11T04:15:13.551Z,88.70
2019-01-11T04:17:41.983Z,90.10
2019-01-11T04:20:16.309Z,90.40
2019-01-11T04:22:46.507Z,90.20
2019-01-11T04:25:22.638Z,90.60
2019-01-11T04:27:51.809Z,90.90
2019-01-11T04:30:21.127Z,90.70
2019-01-11T04:32:49.724Z,90.50
2019-01-11T04:35:18.776Z,90.90
2019-01-11T04:37:47.456Z,90.90
2019-01-11T04:40:16.482Z,90.60
2019-01-11T04:42:45.039Z,89.90
2019-01-11T04:45:13.607Z,90.10
2019-01-11T04:47:42.087Z,90.10
2019-01-11T04:50:13.514Z,90.00
2019-01-11T04:52:41.931Z,89.30
2019-01-11T04:55:10.602Z,89.40
2019-01-11T04:57:39.012Z,89.00
2019-01-11T05:00:19.263Z,90.20
2019-01-11T05:02:47.941Z,90.50
2019-01-11T05:05:16.698Z,90.60
2019-01-11T05:07:45.122Z,90.60
2019-01-11T05:10:16.042Z,90.60
2019-01-11T05:12:44.475Z,90.70
2019-01-11T05:15:12.889Z,91.10
2019-01-11T05:17:41.369Z,91.20
2019-01-11T05:20:16.596Z,91.40
2019-01-11T05:22:42.180Z,91.60
2019-01-11T05:25:10.681Z,92.00
2019-01-11T05:27:39.158Z,92.00
2019-01-11T05:30:10.660Z,92.20
2019-01-11T05:32:39.075Z,92.20
2019-01-11T05:35:07.839Z,92.40
2019-01-11T05:37:37.674Z,92.30
2019-01-11T05:40:14.887Z,92.20
2019-01-11T05:42:43.451Z,92.40
2019-01-11T05:45:12.111Z,92.40
2019-01-11T05:47:40.542Z,92.60
2019-01-11T05:50:14.882Z,92.40
2019-01-11T05:52:43.716Z,92.60
2019-01-11T05:55:14.211Z,92.90
2019-01-11T05:57:59.335Z,93.40
2019-01-11T06:00:27.763Z,92.90
2019-01-11T06:02:56.184Z,92.70
2019-01-11T06:05:24.616Z,93.30
2019-01-11T06:07:53.044Z,93.50
2019-01-11T06:10:21.493Z,93.40
2019-01-11T06:12:51.559Z,93.40
2019-01-11T06:15:20.068Z,93.60
2019-01-11T06:17:48.494Z,93.30
2019-01-11T06:20:17.440Z,93.20
2019-01-11T06:22:45.983Z,93.40
2019-01-11T06:25:14.432Z,93.20
2019-01-11T06:27:42.938Z,93.50
2019-01-11T06:30:13.926Z,93.50
2019-01-11T06:32:42.359Z,93.70
2019-01-11T06:35:10.943Z,93.70
2019-01-11T06:37:39.440Z,94.40
2019-01-11T06:40:10.271Z,93.90
2019-01-11T06:42:38.773Z,94.50
2019-01-11T06:45:10.302Z,94.20
2019-01-11T06:47:39.254Z,94.50
2019-01-11T06:50:13.455Z,94.30
2019-01-11T06:52:41.874Z,94.90
2019-01-11T06:55:11.358Z,94.90
2019-01-11T06:57:39.851Z,95.10
2019-01-11T07:00:18.408Z,94.70
2019-01-11T07:02:46.889Z,94.70
2019-01-11T07:05:15.368Z,94.90
2019-01-11T07:07:43.849Z,94.90
2019-01-11T07:10:15.326Z,94.80
2019-01-11T07:12:43.750Z,94.90
2019-01-11T07:15:12.908Z,94.90
2019-01-11T07:17:41.446Z,94.80
2019-01-11T07:20:14.096Z,94.70
2019-01-11T07:22:42.527Z,94.80
2019-01-11T07:25:13.491Z,94.90
2019-01-11T07:27:43.577Z,95.00
2019-01-11T07:30:14.734Z,94.70
2019-01-11T07:32:43.237Z,94.70
2019-01-11T07:35:11.795Z,95.10
2019-01-11T07:37:40.299Z,94.90
2019-01-11T07:40:12.849Z,95.20
2019-01-11T07:42:41.836Z,95.30
2019-01-11T07:45:14.168Z,95.20
2019-01-11T07:47:42.590Z,95.30
2019-01-11T07:50:12.896Z,95.20
2019-01-11T07:52:41.381Z,95.00
2019-01-11T07:55:10.826Z,95.00
2019-01-11T07:57:39.247Z,95.30
2019-01-11T08:00:10.463Z,95.50
2019-01-11T08:02:38.890Z,95.60
2019-01-11T08:05:08.380Z,95.70
2019-01-11T08:07:36.911Z,95.20
2019-01-11T08:10:08.556Z,95.30
2019-01-11T08:12:36.987Z,95.50
2019-01-11T08:15:11.119Z,95.70
2019-01-11T08:17:39.560Z,95.50
2019-01-11T08:20:09.080Z,95.50
2019-01-11T08:22:39.159Z,95.10
2019-01-11T08:25:07.983Z,95.10
2019-01-11T08:27:36.504Z,95.00
2019-01-11T08:30:10.851Z,94.60
2019-01-11T08:32:39.280Z,94.60
2019-01-11T08:35:09.615Z,94.70
2019-01-11T08:37:38.304Z,94.70
2019-01-11T08:40:09.543Z,94.60
2019-01-11T08:42:37.962Z,95.00
2019-01-11T08:45:14.548Z,95.10
2019-01-11T08:47:43.039Z,94.80
2019-01-11T08:50:21.883Z,95.10
2019-01-11T08:52:50.383Z,95.10
2019-01-11T08:55:18.970Z,94.70
2019-01-11T08:57:48.096Z,95.10
2019-01-11T09:00:17.059Z,94.90
2019-01-11T09:02:45.560Z,95.00
2019-01-11T09:05:14.128Z,95.00
2019-01-11T09:07:42.569Z,94.80
2019-01-11T09:10:22.761Z,95.00
2019-01-11T09:12:48.845Z,95.40
2019-01-11T09:15:17.571Z,94.80
2019-01-11T09:17:59.767Z,94.90
2019-01-11T09:20:28.183Z,94.80
2019-01-11T09:22:56.595Z,95.00
2019-01-11T09:25:25.030Z,94.70
2019-01-11T09:27:53.442Z,94.90
2019-01-11T09:30:21.876Z,94.50
2019-01-11T09:32:50.307Z,94.40
2019-01-11T09:35:18.732Z,94.40
2019-01-11T09:37:47.147Z,94.40
2019-01-11T09:40:15.715Z,94.00
2019-01-11T09:42:44.130Z,93.70
2019-01-11T09:45:12.820Z,94.00
2019-01-11T09:47:41.251Z,93.70
2019-01-11T09:50:11.745Z,93.70
2019-01-11T09:52:40.243Z,93.50
2019-01-11T09:55:09.311Z,93.70
2019-01-11T09:57:37.749Z,93.70
2019-01-11T10:00:21.252Z,94.10
2019-01-11T10:02:51.323Z,93.90
2019-01-11T10:05:20.009Z,94.10
2019-01-11T10:07:48.442Z,94.00
2019-01-11T10:10:17.067Z,93.80
2019-01-11T10:12:45.482Z,93.70
2019-01-11T10:15:14.954Z,94.20
2019-01-11T10:17:43.511Z,93.90
2019-01-11T10:20:13.674Z,94.00
2019-01-11T10:22:42.164Z,94.20
2019-01-11T10:25:11.244Z,94.20
2019-01-11T10:27:40.100Z,94.80
2019-01-11T10:30:17.210Z,94.70
2019-01-11T10:32:45.694Z,95.00
2019-01-11T10:35:14.246Z,95.20
2019-01-11T10:37:42.922Z,95.50
2019-01-11T10:40:16.453Z,96.10
2019-01-11T10:42:45.029Z,96.30
2019-01-11T10:45:16.488Z,96.70
2019-01-11T10:47:44.987Z,97.00
2019-01-11T10:50:16.248Z,96.70
2019-01-11T10:52:44.760Z,96.60
2019-01-11T10:55:15.387Z,96.50
2019-01-11T10:57:44.246Z,96.20
2019-01-11T11:00:15.922Z,96.50
2019-01-11T11:02:44.411Z,96.70
2019-01-11T11:05:12.986Z,96.40
2019-01-11T11:07:41.547Z,96.60
2019-01-11T11:10:12.418Z,96.70
2019-01-11T11:12:40.839Z,96.90
2019-01-11T11:15:12.181Z,96.70
2019-01-11T11:17:42.312Z,96.70
2019-01-11T11:20:13.775Z,96.80
2019-01-11T11:22:43.049Z,96.40
2019-01-11T11:25:16.855Z,96.40
2019-01-11T11:27:45.527Z,96.30
2019-01-11T11:30:15.983Z,96.90
2019-01-11T11:32:48.727Z,96.40
2019-01-11T11:35:17.154Z,96.70
2019-01-11T11:37:45.659Z,96.70
2019-01-11T11:40:14.217Z,96.30
2019-01-11T11:42:42.685Z,96.50
2019-01-11T11:45:11.578Z,96.60
2019-01-11T11:47:40.010Z,97.00
2019-01-11T11:50:10.333Z,97.40
2019-01-11T11:52:38.842Z,97.60
2019-01-11T11:55:09.222Z,97.80
2019-01-11T11:57:37.784Z,98.30
2019-01-11T12:00:18.545Z,98.30
2019-01-11T12:02:47.203Z,98.30
2019-01-11T12:05:15.769Z,98.50
2019-01-11T12:07:44.429Z,98.60
2019-01-11T12:10:14.904Z,98.20
2019-01-11T12:12:43.687Z,98.30
2019-01-11T12:15:13.771Z,98.10
2019-01-11T12:17:42.258Z,98.30
2019-01-11T12:20:19.239Z,97.80
2019-01-11T12:22:47.731Z,98.00
2019-01-11T12:25:16.152Z,97.80
2019-01-11T12:27:44.581Z,98.10
2019-01-11T12:30:15.488Z,98.10
2019-01-11T12:32:43.919Z,98.00
2019-01-11T12:35:12.345Z,97.90
2019-01-11T12:37:40.786Z,97.60
2019-01-11T12:40:11.840Z,97.70
2019-01-11T12:42:40.278Z,97.40
2019-01-11T12:45:11.339Z,97.90
2019-01-11T12:47:39.759Z,97.70
2019-01-11T12:50:11.495Z,97.60
2019-01-11T12:52:39.991Z,97.70
2019-01-11T12:55:08.567Z,98.00
2019-01-11T12:57:36.983Z,98.30
2019-01-11T13:00:08.499Z,98.40
2019-01-11T13:02:36.919Z,98.30
2019-01-11T13:05:08.080Z,98.60
2019-01-11T13:07:36.519Z,98.40
2019-01-11T13:10:08.182Z,98.40
2019-01-11T13:12:36.679Z,98.50
2019-01-11T13:15:08.175Z,98.60
2019-01-11T13:17:36.607Z,98.40
2019-01-11T13:20:08.339Z,98.60
2019-01-11T13:22:36.776Z,98.50
2019-01-11T13:25:06.939Z,98.40
2019-01-11T13:27:35.361Z,98.80
2019-01-11T13:30:06.697Z,98.80
2019-01-11T13:32:35.186Z,98.90
2019-01-11T13:35:04.196Z,98.70
2019-01-11T13:37:32.687Z,98.80
2019-01-11T13:40:01.127Z,98.50
2019-01-11T13:42:29.548Z,98.30
2019-01-11T13:44:57.979Z,98.10
2019-01-11T13:47:26.439Z,98.10
2019-01-11T13:49:54.871Z,98.30
2019-01-11T13:52:23.300Z,98.50
2019-01-11T13:54:51.724Z,98.60
2019-01-11T13:57:20.231Z,98.60
2019-01-11T13:59:48.647Z,98.90
2019-01-11T14:02:17.099Z,98.90
2019-01-11T14:04:45.522Z,98.90
2019-01-11T14:07:13.951Z,99.00
2019-01-11T14:09:42.459Z,99.30
2019-01-11T14:12:10.893Z,99.70
2019-01-11T14:14:39.330Z,99.30
2019-01-11T14:17:07.751Z,99.30
2019-01-11T14:19:36.188Z,99.30
2019-01-11T14:22:25.539Z,99.10
2019-01-11T14:24:53.979Z,99.10
2019-01-11T14:27:22.403Z,99.20
2019-01-11T14:29:50.825Z,99.30
2019-01-11T14:32:19.259Z,99.20
2019-01-11T14:34:47.685Z,99.40
2019-01-11T14:37:16.119Z,99.60
2019-01-11T14:39:44.543Z,99.60
2019-01-11T14:42:13.059Z,99.80
2019-01-11T14:44:41.474Z,99.40
2019-01-11T14:47:09.919Z,99.20
2019-01-11T14:49:38.335Z,99.00
2019-01-11T14:52:07.043Z,99.00
2019-01-11T14:54:35.458Z,99.50
2019-01-11T14:57:03.904Z,99.20
2019-01-11T14:59:32.323Z,99.20
2019-01-11T15:02:00.768Z,99.40
2019-01-11T15:04:29.192Z,99.40
2019-01-11T15:06:57.615Z,99.50
2019-01-11T15:09:26.055Z,99.70
2019-01-11T15:11:54.479Z,99.50
2019-01-11T15:14:22.910Z,99.40
2019-01-11T15:16:51.337Z,99.60
2019-01-11T15:19:19.785Z,99.70
2019-01-11T15:21:48.211Z,99.80
2019-01-11T15:24:16.635Z,99.90
2019-01-11T15:26:45.075Z,99.60
2019-01-11T15:29:13.564Z,99.60
2019-01-11T15:31:42.072Z,99.60
2019-01-11T15:34:10.497Z,99.60
2019-01-11T15:36:38.934Z,99.60
2019-01-11T15:39:08.512Z,99.90
2019-01-11T15:41:36.998Z,99.90
2019-01-11T15:44:05.503Z,99.60
2019-01-11T15:46:33.928Z,99.70
2019-01-11T15:49:02.375Z,99.90
2019-01-11T15:51:30.799Z,99.90
2019-01-11T15:53:59.219Z,99.90
2019-01-11T15:56:28.426Z,99.90
2019-01-11T15:58:56.960Z,99.90
2019-01-11T16:01:25.834Z,99.90
2019-01-11T16:03:54.446Z,99.90
2019-01-11T16:06:27.866Z,99.90
2019-01-11T16:09:08.153Z,99.90
2019-01-11T16:11:45.736Z,99.90
2019-01-11T16:14:26.143Z,99.90
2019-01-11T16:16:55.844Z,99.90
2019-01-11T16:19:24.271Z,99.90
2019-01-11T16:21:52.691Z,99.80
2019-01-11T16:24:21.128Z,99.60
2019-01-11T16:26:49.555Z,99.90
2019-01-11T16:29:17.987Z,99.90
2019-01-11T16:31:46.410Z,99.90
2019-01-11T16:34:14.849Z,99.90
2019-01-11T16:36:43.271Z,99.70
2019-01-11T16:39:11.699Z,99.90
2019-01-11T16:41:40.133Z,99.90
2019-01-11T16:44:08.557Z,99.90
2019-01-11T16:46:36.995Z,99.90
2019-01-11T16:49:05.688Z,99.90
2019-01-11T16:51:34.139Z,99.90
2019-01-11T16:54:02.559Z,99.90
2019-01-11T16:56:30.983Z,99.90
2019-01-11T16:58:59.424Z,99.90
2019-01-11T17:01:28.086Z,99.90
2019-01-11T17:03:56.520Z,99.90
2019-01-11T17:06:25.003Z,99.90
2019-01-11T17:08:53.455Z,99.90
2019-01-11T17:11:21.963Z,99.90
2019-01-11T17:13:50.403Z,99.90
2019-01-11T17:16:18.823Z,99.90
2019-01-11T17:18:47.295Z,99.90
2019-01-11T17:21:15.767Z,99.90
2019-01-11T17:23:44.190Z,99.90
2019-01-11T17:26:12.687Z,99.90
2019-01-11T17:28:41.107Z,99.90
2019-01-11T17:31:09.543Z,99.90
2019-01-11T17:33:37.959Z,99.90
2019-01-11T17:36:06.392Z,99.90
2019-01-11T17:38:34.815Z,99.90
2019-01-11T17:41:03.280Z,99.90
2019-01-11T17:43:31.704Z,99.90
2019-01-11T17:46:00.127Z,99.90
2019-01-11T17:48:28.559Z,99.90
2019-01-11T17:50:56.986Z,99.90
2019-01-11T17:53:25.492Z,99.90
2019-01-11T17:55:53.911Z,99.90
2019-01-11T17:58:22.406Z,99.90
2019-01-11T18:00:51.034Z,99.90
2019-01-11T18:03:19.474Z,99.90
2019-01-11T18:05:47.903Z,99.90
2019-01-11T18:08:16.322Z,99.90
2019-01-11T18:10:44.757Z,99.90
2019-01-11T18:13:13.174Z,99.90
2019-01-11T18:15:41.605Z,99.90
2019-01-11T18:18:10.091Z,99.90
2019-01-11T18:20:39.199Z,99.90
2019-01-11T18:23:07.699Z,99.90
2019-01-11T18:25:36.183Z,99.90
2019-01-11T18:28:04.786Z,99.90
2019-01-11T18:30:33.208Z,99.90
2019-01-11T18:33:01.636Z,99.90
2019-01-11T18:35:30.197Z,99.90
2019-01-11T18:37:58.628Z,99.90
2019-01-11T18:40:27.428Z,99.90
2019-01-11T18:42:55.854Z,99.90
2019-01-11T18:45:28.551Z,99.90
2019-01-11T18:47:54.438Z,99.90
2019-01-11T18:50:23.825Z,99.90
2019-01-11T18:52:52.380Z,99.90
2019-01-11T18:55:20.819Z,99.90
2019-01-11T18:57:49.302Z,99.90
2019-01-11T19:00:20.681Z,99.90
2019-01-11T19:02:49.253Z,99.90
2019-01-11T19:05:17.753Z,99.90
2019-01-11T19:07:46.654Z,99.90
2019-01-11T19:10:17.291Z,99.90
2019-01-11T19:12:45.983Z,99.90
2019-01-11T19:15:16.863Z,99.90
2019-01-11T19:17:45.287Z,99.90
2019-01-11T19:20:16.415Z,99.90
2019-01-11T19:22:44.986Z,99.90
2019-01-11T19:25:13.659Z,99.90
2019-01-11T19:27:42.175Z,99.90
2019-01-11T19:30:16.597Z,99.90
2019-01-11T19:32:45.102Z,99.90
2019-01-11T19:35:13.588Z,99.90
2019-01-11T19:37:42.219Z,99.90
2019-01-11T19:40:15.518Z,99.90
2019-01-11T19:42:43.950Z,99.90
2019-01-11T19:45:14.325Z,99.90
2019-01-11T19:47:42.745Z,99.90
2019-01-11T19:50:13.890Z,99.90
2019-01-11T19:52:42.378Z,99.90
2019-01-11T19:55:11.560Z,99.90
2019-01-11T19:57:40.054Z,99.90
2019-01-11T20:00:14.506Z,99.90
2019-01-11T20:02:43.006Z,99.90
2019-01-11T20:05:11.688Z,99.90
2019-01-11T20:07:40.188Z,99.90
2019-01-11T20:10:11.700Z,99.90
2019-01-11T20:12:40.194Z,99.90
2019-01-11T20:15:09.271Z,99.90
2019-01-11T20:17:37.925Z,99.90
2019-01-11T20:20:11.757Z,99.90
2019-01-11T20:22:40.263Z,99.90
2019-01-11T20:25:11.761Z,99.90
2019-01-11T20:27:40.207Z,99.90
2019-01-11T20:30:11.716Z,99.90
2019-01-11T20:32:40.199Z,99.90
2019-01-11T20:35:08.780Z,99.90
2019-01-11T20:37:37.267Z,99.90
2019-01-11T20:40:08.779Z,99.90
2019-01-11T20:42:37.211Z,99.90
2019-01-11T20:45:07.688Z,99.90
2019-01-11T20:47:36.115Z,99.90
2019-01-11T20:50:10.100Z,99.90
2019-01-11T20:52:38.515Z,99.90
2019-01-11T20:55:08.988Z,99.90
2019-01-11T20:57:37.495Z,99.90
2019-01-11T21:00:08.989Z,99.90
2019-01-11T21:02:37.425Z,99.90
2019-01-11T21:05:07.088Z,99.90
2019-01-11T21:07:35.516Z,99.90
2019-01-11T21:10:05.771Z,99.90
2019-01-11T21:12:34.212Z,99.90
2019-01-11T21:15:02.631Z,99.90
2019-01-11T21:17:31.047Z,99.90
2019-01-11T21:19:59.499Z,99.90
2019-01-11T21:22:27.923Z,99.90
2019-01-11T21:25:00.165Z,99.90
2019-01-11T21:27:26.499Z,99.90
2019-01-11T21:29:54.932Z,99.90
2019-01-11T21:32:23.424Z,99.90
2019-01-11T21:34:51.868Z,99.90
2019-01-11T21:37:20.342Z,99.90
2019-01-11T21:39:48.787Z,99.90
2019-01-11T21:42:19.190Z,99.90
2019-01-11T21:44:48.539Z,99.90
2019-01-11T21:47:16.972Z,99.90
2019-01-11T21:49:45.396Z,99.90
2019-01-11T21:52:13.888Z,99.90
2019-01-11T21:54:42.309Z,99.90
2019-01-11T21:57:10.739Z,99.90
2019-01-11T21:59:39.168Z,99.90
2019-01-11T22:02:07.584Z,99.90
2019-01-11T22:04:36.011Z,99.90
2019-01-11T22:07:04.603Z,99.90
2019-01-11T22:09:33.038Z,99.90
2019-01-11T22:12:01.461Z,99.90
2019-01-11T22:14:29.907Z,99.90
2019-01-11T22:16:58.326Z,99.90
2019-01-11T22:19:26.748Z,99.90
2019-01-11T22:21:55.251Z,99.90
2019-01-11T22:24:23.664Z,99.90
2019-01-11T22:26:52.101Z,99.90
2019-01-11T22:29:20.515Z,99.90
2019-01-11T22:31:48.959Z,99.90
2019-01-11T22:34:17.386Z,99.90
2019-01-11T22:36:45.919Z,99.90
2019-01-11T22:39:14.407Z,99.90
2019-01-11T22:41:42.823Z,99.90
2019-01-11T22:44:11.263Z,99.90
2019-01-11T22:46:39.683Z,99.90
2019-01-11T22:49:08.122Z,99.90
2019-01-11T22:51:36.531Z,99.90
2019-01-11T22:54:10.267Z,99.90
2019-01-11T22:56:35.184Z,99.90
2019-01-11T22:59:03.675Z,99.90
2019-01-11T23:01:53.651Z,99.90
2019-01-11T23:04:22.095Z,99.90
2019-01-11T23:06:56.388Z,99.90
2019-01-11T23:09:24.809Z,99.90
2019-01-11T23:11:58.991Z,99.90
2019-01-11T23:14:27.415Z,99.90
2019-01-11T23:16:58.691Z,99.90
2019-01-11T23:19:27.110Z,99.90
2019-01-11T23:21:55.548Z,99.90
2019-01-11T23:24:23.970Z,99.90
2019-01-11T23:26:52.410Z,99.90
2019-01-11T23:29:20.835Z,99.90
2019-01-11T23:31:49.273Z,99.90
2019-01-11T23:34:17.684Z,99.90
2019-01-11T23:36:46.128Z,99.90
2019-01-11T23:39:14.543Z,99.90
2019-01-11T23:41:43.790Z,99.90
2019-01-11T23:44:12.220Z,99.90
2019-01-11T23:46:40.712Z,99.90
2019-01-11T23:49:09.209Z,99.90
2019-01-11T23:51:37.756Z,99.90
2019-01-11T23:54:06.204Z,99.90
2019-01-11T23:56:34.623Z,99.90
2019-01-11T23:59:03.117Z,99.90
